createdAt,value
2019-04-05T21:35:51.639Z,20.394592
2019-04-05T21:36:06.189Z,20.414734
2019-04-05T21:36:20.803Z,20.384521
2019-04-05T21:36:36.466Z,20.414734
2019-04-05T21:36:51.159Z,20.384521
2019-04-05T21:37:05.798Z,20.36438
2019-04-05T21:38:32.845Z,20.142822
2019-04-05T21:38:47.309Z,19.921265
2019-04-05T21:39:02.851Z,19.649353
2019-04-05T21:39:17.340Z,19.397583
2019-04-05T21:39:32.764Z,19.075317
2019-04-05T21:39:48.106Z,18.783264
2019-04-05T21:40:03.449Z,18.450928
2019-04-05T21:40:17.852Z,18.118591
2019-04-05T21:40:32.232Z,17.766113
2019-04-05T21:40:46.612Z,17.494202
2019-04-05T21:41:00.997Z,17.282715
2019-04-05T21:41:16.386Z,17.061157
2019-04-05T21:41:30.737Z,16.84967
2019-04-05T21:41:45.087Z,16.638184
2019-04-05T21:41:59.461Z,16.426697
2019-04-05T21:42:13.852Z,16.235352
2019-04-05T21:42:28.247Z,16.054077
2019-04-05T21:42:42.663Z,15.84259
2019-04-05T21:42:57.126Z,15.691528
2019-04-05T21:43:11.519Z,15.500183
2019-04-05T21:43:25.919Z,15.278625
2019-04-05T21:43:40.286Z,15.08728
2019-04-05T21:43:55.783Z,14.875793
2019-04-05T21:44:10.142Z,14.654236
2019-04-05T21:44:24.563Z,14.432678
2019-04-05T21:44:40.067Z,14.180908
2019-04-05T21:44:56.339Z,13.969421
2019-04-05T21:45:10.723Z,13.818359
2019-04-05T21:45:25.105Z,13.637085
2019-04-05T21:45:39.494Z,13.475952
2019-04-05T21:45:54.853Z,13.334961
2019-04-05T21:46:09.225Z,13.224182
2019-04-05T21:46:24.588Z,13.083191
2019-04-05T21:46:39.735Z,12.932129
2019-04-05T21:46:55.091Z,12.781067
2019-04-05T21:47:09.472Z,12.650146
2019-04-05T21:47:23.828Z,12.539368
2019-04-05T21:47:38.227Z,12.44873
2019-04-05T21:47:52.603Z,12.307739
2019-04-05T21:48:06.950Z,12.116394
2019-04-05T21:48:21.837Z,11.955261
2019-04-05T21:48:37.217Z,11.824341
2019-04-05T21:48:51.591Z,11.653137
2019-04-05T21:49:06.035Z,11.572571
2019-04-05T21:49:20.392Z,11.44165
2019-04-05T21:49:34.777Z,11.371155
2019-04-05T21:49:50.173Z,11.320801
2019-04-05T21:50:04.552Z,11.250305
2019-04-05T21:50:18.900Z,11.169739
2019-04-05T21:50:33.298Z,11.109314
2019-04-05T21:50:47.669Z,11.038818
2019-04-05T21:51:02.074Z,10.968323
2019-04-05T21:51:16.450Z,10.907898
2019-04-05T21:51:32.786Z,10.817261
2019-04-05T21:51:47.180Z,10.706482
2019-04-05T21:52:01.533Z,10.605774
2019-04-05T21:52:15.928Z,10.484924
2019-04-05T21:52:30.349Z,10.414429
2019-04-05T21:52:44.798Z,10.343933
2019-04-05T21:52:59.181Z,10.323792
2019-04-05T21:53:14.564Z,10.273438
2019-04-05T21:53:29.954Z,10.1828
2019-04-05T21:53:47.401Z,10.122375
2019-04-05T21:54:02.250Z,10.05188
2019-04-05T21:54:16.644Z,9.93103
2019-04-05T21:54:31.986Z,9.860535
2019-04-05T21:54:51.344Z,9.779968
2019-04-05T21:55:05.716Z,9.719543
2019-04-05T21:55:20.103Z,9.649048
2019-04-05T21:55:34.494Z,9.598694
2019-04-05T21:55:48.880Z,9.578552
2019-04-05T21:56:03.258Z,9.558411
2019-04-05T21:56:17.673Z,9.508057
2019-04-05T21:56:32.066Z,9.457703
2019-04-05T21:56:47.442Z,9.387207
2019-04-05T21:57:01.846Z,9.356995
2019-04-05T21:57:16.257Z,9.286499
2019-04-05T21:57:31.664Z,9.226074
2019-04-05T21:57:46.053Z,9.195862
2019-04-05T21:58:00.428Z,9.17572
2019-04-05T21:58:14.770Z,9.145508
2019-04-05T21:58:30.207Z,9.105225
2019-04-05T21:58:44.570Z,9.105225
2019-04-05T21:58:58.945Z,9.095154
2019-04-05T21:59:13.342Z,9.095154
2019-04-05T21:59:28.787Z,9.0448
2019-04-05T21:59:43.176Z,8.994446
2019-04-05T21:59:57.958Z,8.964233
2019-04-05T22:00:12.531Z,8.944092
2019-04-05T22:00:30.020Z,8.913879
2019-04-05T22:00:45.215Z,8.843384
2019-04-05T22:00:59.947Z,8.813171
2019-04-05T22:01:17.357Z,8.79303
2019-04-05T22:01:32.642Z,8.79303
2019-04-05T22:01:48.124Z,8.762817
2019-04-05T22:02:02.532Z,8.772888
2019-04-05T22:02:16.947Z,8.762817
2019-04-05T22:02:31.624Z,8.762817
2019-04-05T22:02:46.730Z,8.742676
2019-04-05T22:03:02.137Z,8.732605
2019-04-05T22:03:16.554Z,8.702393
2019-04-05T22:03:31.054Z,8.702393
2019-04-05T22:03:46.898Z,8.662109
2019-04-05T22:04:02.271Z,8.631897
2019-04-05T22:04:16.633Z,8.591614
2019-04-05T22:04:40.703Z,8.581543
2019-04-05T22:04:56.165Z,8.561401
2019-04-05T22:05:11.584Z,8.561401
2019-04-05T22:05:25.993Z,8.561401
2019-04-05T22:05:41.364Z,8.531189
2019-04-05T22:05:56.328Z,8.531189
2019-04-05T22:06:17.489Z,8.521118
2019-04-05T22:06:32.589Z,8.521118
2019-04-05T22:06:47.287Z,8.480835
2019-04-05T22:07:02.859Z,8.500977
2019-04-05T22:07:18.585Z,8.500977
2019-04-05T22:07:34.464Z,8.500977
2019-04-05T22:07:51.402Z,8.480835
2019-04-05T22:08:05.219Z,8.480835
2019-04-05T22:08:22.448Z,8.480835
2019-04-05T22:08:39.971Z,8.480835
2019-04-05T22:08:55.862Z,8.470764
2019-04-05T22:09:11.906Z,8.470764
2019-04-05T22:09:27.333Z,8.470764
2019-04-05T22:09:42.728Z,8.470764
2019-04-05T22:09:57.839Z,8.450623
2019-04-05T22:10:12.891Z,8.440552
2019-04-05T22:10:27.408Z,8.440552
2019-04-05T22:10:42.696Z,8.430481
2019-04-05T22:10:58.200Z,8.410339
2019-04-05T22:11:13.102Z,8.410339
2019-04-05T22:11:30.724Z,8.400269
2019-04-05T22:11:45.268Z,8.400269
2019-04-05T22:12:00.909Z,8.400269
2019-04-05T22:12:16.441Z,8.380127
2019-04-05T22:12:35.465Z,8.380127
2019-04-05T22:12:51.513Z,8.380127
2019-04-05T22:13:11.402Z,8.380127
2019-04-05T22:13:30.748Z,8.380127
2019-04-05T22:13:45.854Z,8.380127
2019-04-05T22:14:02.555Z,8.370056
2019-04-05T22:14:17.418Z,8.359985
2019-04-05T22:14:34.545Z,8.359985
2019-04-05T22:14:55.288Z,8.339844
2019-04-05T22:15:09.726Z,8.359985
2019-04-05T22:15:29.674Z,8.359985
2019-04-05T22:15:46.018Z,8.359985
2019-04-05T22:16:01.744Z,8.359985
2019-04-05T22:16:18.236Z,8.339844
2019-04-05T22:16:33.318Z,8.329773
2019-04-05T22:16:50.017Z,8.329773
2019-04-05T22:17:05.589Z,8.299561
2019-04-05T22:17:21.555Z,8.299561
2019-04-05T22:17:37.661Z,8.28949
2019-04-05T22:17:52.364Z,8.28949
2019-04-05T22:18:09.484Z,8.28949
2019-04-05T22:18:24.132Z,8.28949
2019-04-05T22:18:38.744Z,8.249207
2019-04-05T22:19:02.093Z,8.188782
2019-04-05T22:19:18.286Z,8.158569
2019-04-05T22:19:34.438Z,8.148499
2019-04-05T22:19:50.226Z,8.118286
2019-04-05T22:20:07.897Z,8.118286
2019-04-05T22:20:23.038Z,8.108215
2019-04-05T22:20:38.451Z,8.108215
2019-04-05T22:20:53.750Z,8.118286
2019-04-05T22:21:09.230Z,8.108215
2019-04-05T22:21:28.897Z,8.118286
2019-04-05T22:21:43.456Z,8.118286
2019-04-05T22:21:58.256Z,8.108215
2019-04-05T22:22:13.176Z,8.118286
2019-04-05T22:22:29.550Z,8.098145
2019-04-05T22:22:45.453Z,8.078003
2019-04-05T22:23:01.558Z,8.078003
2019-04-05T22:23:16.129Z,8.067932
2019-04-05T22:23:32.318Z,8.067932
2019-04-05T22:23:47.044Z,8.067932
2019-04-05T22:24:02.047Z,8.047791
2019-04-05T22:24:17.934Z,8.03772
2019-04-05T22:24:32.369Z,8.03772
2019-04-05T22:24:58.431Z,8.017578
2019-04-05T22:25:08.863Z,8.047791
2019-04-05T22:25:23.721Z,8.03772
2019-04-05T22:25:38.594Z,8.03772
2019-04-05T22:25:53.632Z,8.047791
2019-04-05T22:26:08.094Z,8.047791
2019-04-05T22:26:23.403Z,8.047791
2019-04-05T22:26:38.421Z,8.047791
2019-04-05T22:26:53.434Z,8.047791
2019-04-05T22:27:08.790Z,8.03772
2019-04-05T22:27:23.192Z,8.03772
2019-04-05T22:27:38.885Z,8.047791
2019-04-05T22:27:54.190Z,8.03772
2019-04-05T22:28:08.751Z,8.03772
2019-04-05T22:28:26.219Z,8.067932
2019-04-05T22:28:41.353Z,8.03772
2019-04-05T22:28:55.935Z,8.03772
2019-04-05T22:29:11.360Z,8.017578
2019-04-05T22:29:26.086Z,8.047791
2019-04-05T22:29:40.819Z,8.047791
2019-04-05T22:29:56.046Z,8.047791
2019-04-05T22:30:11.556Z,8.047791
2019-04-05T22:30:26.139Z,8.047791
2019-04-05T22:30:40.798Z,8.047791
2019-04-05T22:30:55.485Z,8.047791
2019-04-05T22:31:11.241Z,8.03772
2019-04-05T22:31:25.735Z,8.047791
2019-04-05T22:31:40.422Z,8.017578
2019-04-05T22:31:55.133Z,8.03772
2019-04-05T22:32:11.548Z,8.007507
2019-04-05T22:32:26.154Z,7.997437
2019-04-05T22:32:40.958Z,7.977295
2019-04-05T22:32:55.657Z,7.977295
2019-04-05T22:33:10.640Z,7.977295
2019-04-05T22:33:25.526Z,7.977295
2019-04-05T22:33:41.701Z,7.977295
2019-04-05T22:33:56.599Z,7.977295
2019-04-05T22:34:12.398Z,7.997437
2019-04-05T22:34:27.727Z,7.977295
2019-04-05T22:34:42.920Z,7.997437
2019-04-05T22:34:58.262Z,7.997437
2019-04-05T22:35:13.597Z,7.997437
2019-04-05T22:35:29.326Z,7.997437
2019-04-05T22:35:45.036Z,7.997437
2019-04-05T22:35:59.441Z,8.017578
2019-04-05T22:36:15.432Z,8.007507
2019-04-05T22:36:30.433Z,8.007507
2019-04-05T22:36:45.709Z,8.007507
2019-04-05T22:37:00.713Z,8.007507
2019-04-05T22:37:16.145Z,8.03772
2019-04-05T22:37:32.171Z,8.017578
2019-04-05T22:37:46.835Z,8.03772
2019-04-05T22:38:01.720Z,8.017578
2019-04-05T22:38:16.515Z,8.017578
2019-04-05T22:38:30.934Z,8.03772
2019-04-05T22:38:46.340Z,8.03772
2019-04-05T22:39:01.199Z,8.03772
2019-04-05T22:39:15.838Z,8.03772
2019-04-05T22:39:32.040Z,8.047791
2019-04-05T22:39:47.480Z,8.047791
2019-04-05T22:40:03.163Z,8.03772
2019-04-05T22:40:17.552Z,8.03772
2019-04-05T22:40:33.752Z,8.017578
2019-04-05T22:40:48.774Z,8.03772
2019-04-05T22:41:03.530Z,8.03772
2019-04-05T22:41:18.565Z,8.03772
2019-04-05T22:41:33.380Z,8.017578
2019-04-05T22:41:53.218Z,8.017578
2019-04-05T22:42:07.674Z,8.03772
2019-04-05T22:42:25.063Z,8.03772
2019-04-05T22:42:41.498Z,8.017578
2019-04-05T22:42:56.221Z,8.017578
2019-04-05T22:43:12.640Z,8.03772
2019-04-05T22:43:27.704Z,8.03772
2019-04-05T22:43:42.989Z,8.03772
2019-04-05T22:43:58.130Z,8.017578
2019-04-05T22:44:12.855Z,8.017578
2019-04-05T22:44:38.028Z,8.007507
2019-04-05T22:44:50.479Z,8.017578
2019-04-05T22:45:05.419Z,8.017578
2019-04-05T22:45:21.543Z,8.007507
2019-04-05T22:45:36.791Z,7.997437
2019-04-05T22:45:51.466Z,7.997437
2019-04-05T22:46:07.200Z,7.997437
2019-04-05T22:46:22.284Z,7.977295
2019-04-05T22:46:37.295Z,7.967224
2019-04-05T22:46:52.576Z,7.997437
2019-04-05T22:47:07.254Z,7.997437
2019-04-05T22:47:24.465Z,7.977295
2019-04-05T22:47:40.289Z,7.977295
2019-04-05T22:47:54.871Z,7.967224
2019-04-05T22:48:10.541Z,7.91687
2019-04-05T22:48:25.794Z,7.926941
2019-04-05T22:48:40.860Z,7.926941
2019-04-05T22:48:57.407Z,7.91687
2019-04-05T22:49:11.805Z,7.896729
2019-04-05T22:49:28.571Z,7.896729
2019-04-05T22:49:43.751Z,7.91687
2019-04-05T22:49:58.984Z,7.91687
2019-04-05T22:50:14.694Z,7.926941
2019-04-05T22:50:30.193Z,7.91687
2019-04-05T22:50:45.804Z,7.91687
2019-04-05T22:51:01.384Z,7.91687
2019-04-05T22:51:16.078Z,7.926941
2019-04-05T22:51:31.045Z,7.91687
2019-04-05T22:51:46.246Z,7.896729
2019-04-05T22:52:00.863Z,7.91687
2019-04-05T22:52:16.092Z,7.91687
2019-04-05T22:52:30.704Z,7.91687
2019-04-05T22:52:45.671Z,7.91687
2019-04-05T22:53:01.122Z,7.896729
2019-04-05T22:53:15.508Z,7.896729
2019-04-05T22:53:31.814Z,7.896729
2019-04-05T22:53:46.730Z,7.896729
2019-04-05T22:54:01.340Z,7.896729
2019-04-05T22:54:16.623Z,7.886658
2019-04-05T22:54:32.318Z,7.896729
2019-04-05T22:54:47.227Z,7.896729
2019-04-05T22:55:10.799Z,7.896729
2019-04-05T22:55:23.152Z,7.91687
2019-04-05T22:55:38.278Z,7.91687
2019-04-05T22:55:53.785Z,7.91687
2019-04-05T22:56:08.518Z,7.91687
2019-04-05T22:56:23.654Z,7.886658
2019-04-05T22:56:38.434Z,7.866516
2019-04-05T22:56:53.472Z,7.856445
2019-04-05T22:57:09.290Z,7.856445
2019-04-05T22:57:25.093Z,7.826233
2019-04-05T22:57:42.812Z,7.826233
2019-04-05T22:57:59.006Z,7.816162
2019-04-05T22:58:13.650Z,7.816162
2019-04-05T22:58:30.061Z,7.816162
2019-04-05T22:58:44.432Z,7.816162
2019-04-05T22:59:00.086Z,7.796021
2019-04-05T22:59:16.052Z,7.816162
2019-04-05T22:59:30.997Z,7.796021
2019-04-05T22:59:46.074Z,7.816162
2019-04-05T23:00:00.551Z,7.816162
2019-04-05T23:00:17.730Z,7.816162
2019-04-05T23:00:32.813Z,7.816162
2019-04-05T23:00:47.886Z,7.816162
2019-04-05T23:01:04.205Z,7.826233
2019-04-05T23:01:19.089Z,7.826233
2019-04-05T23:01:35.153Z,7.826233
2019-04-05T23:01:51.898Z,7.826233
2019-04-05T23:02:07.845Z,7.826233
2019-04-05T23:02:23.967Z,7.846375
2019-04-05T23:02:39.281Z,7.846375
2019-04-05T23:02:53.864Z,7.846375
2019-04-05T23:03:10.227Z,7.846375
2019-04-05T23:03:25.003Z,7.846375
2019-04-05T23:03:39.956Z,7.846375
2019-04-05T23:03:55.407Z,7.856445
2019-04-05T23:04:10.058Z,7.856445
2019-04-05T23:04:24.915Z,7.856445
2019-04-05T23:04:40.043Z,7.856445
2019-04-05T23:04:54.780Z,7.866516
2019-04-05T23:05:10.957Z,7.866516
2019-04-05T23:05:27.141Z,7.856445
2019-04-05T23:05:43.145Z,7.866516
2019-04-05T23:05:58.221Z,7.846375
2019-04-05T23:06:13.165Z,7.856445
2019-04-05T23:06:28.204Z,7.856445
2019-04-05T23:06:43.361Z,7.866516
2019-04-05T23:06:58.364Z,7.856445
2019-04-05T23:07:14.221Z,7.856445
2019-04-05T23:07:29.348Z,7.856445
2019-04-05T23:07:45.651Z,7.856445
2019-04-05T23:08:00.454Z,7.856445
2019-04-05T23:08:15.583Z,7.846375
2019-04-05T23:08:31.041Z,7.846375
2019-04-05T23:08:47.031Z,7.846375
2019-04-05T23:09:02.392Z,7.856445
2019-04-05T23:09:16.868Z,7.856445
2019-04-05T23:09:31.839Z,7.856445
2019-04-05T23:09:46.221Z,7.856445
2019-04-05T23:10:00.606Z,7.856445
2019-04-05T23:10:14.966Z,7.846375
2019-04-05T23:10:30.343Z,7.866516
2019-04-05T23:10:45.718Z,7.866516
2019-04-05T23:11:00.119Z,7.856445
2019-04-05T23:11:15.489Z,7.866516
2019-04-05T23:11:30.879Z,7.856445
2019-04-05T23:11:45.299Z,7.886658
2019-04-05T23:11:59.706Z,7.886658
2019-04-05T23:12:14.161Z,7.886658
2019-04-05T23:12:28.543Z,7.886658
2019-04-05T23:12:42.964Z,7.866516
2019-04-05T23:12:57.312Z,7.886658
2019-04-05T23:13:11.686Z,7.886658
2019-04-05T23:13:26.110Z,7.886658
2019-04-05T23:13:40.495Z,7.886658
2019-04-05T23:13:54.866Z,7.896729
2019-04-05T23:14:09.296Z,7.896729
2019-04-05T23:14:23.670Z,7.896729
2019-04-05T23:14:39.056Z,7.886658
2019-04-05T23:14:53.475Z,7.866516
2019-04-05T23:15:07.875Z,7.886658
2019-04-05T23:15:22.251Z,7.886658
2019-04-05T23:15:36.647Z,7.896729
2019-04-05T23:15:51.006Z,7.886658
2019-04-05T23:16:05.449Z,7.896729
2019-04-05T23:16:19.757Z,7.91687
2019-04-05T23:16:34.207Z,7.896729
2019-04-05T23:16:49.582Z,7.896729
2019-04-05T23:17:03.950Z,7.896729
2019-04-05T23:17:18.349Z,7.886658
2019-04-05T23:17:32.727Z,7.896729
2019-04-05T23:17:47.111Z,7.896729
2019-04-05T23:18:01.475Z,7.886658
2019-04-05T23:18:15.838Z,7.886658
2019-04-05T23:18:31.016Z,7.866516
2019-04-05T23:18:47.440Z,7.886658
2019-04-05T23:19:02.550Z,7.866516
2019-04-05T23:19:16.932Z,7.856445
2019-04-05T23:19:32.308Z,7.856445
2019-04-05T23:19:48.672Z,7.846375
2019-04-05T23:20:03.072Z,7.846375
2019-04-05T23:20:17.462Z,7.846375
2019-04-05T23:20:31.924Z,7.856445
2019-04-05T23:20:46.311Z,7.846375
2019-04-05T23:21:00.724Z,7.856445
2019-04-05T23:21:15.125Z,7.846375
2019-04-05T23:21:29.500Z,7.866516
2019-04-05T23:21:43.882Z,7.856445
2019-04-05T23:22:00.695Z,7.856445
2019-04-05T23:22:13.720Z,7.856445
2019-04-05T23:22:28.094Z,7.866516
2019-04-05T23:22:42.484Z,7.886658
2019-04-05T23:22:56.887Z,7.886658
2019-04-05T23:23:11.311Z,7.886658
2019-04-05T23:23:25.682Z,7.886658
2019-04-05T23:23:40.902Z,7.896729
2019-04-05T23:23:55.290Z,7.886658
2019-04-05T23:24:09.678Z,7.896729
2019-04-05T23:24:24.085Z,7.896729
2019-04-05T23:24:38.457Z,7.896729
2019-04-05T23:24:52.889Z,7.91687
2019-04-05T23:25:07.270Z,7.896729
2019-04-05T23:25:27.612Z,7.896729
2019-04-05T23:25:41.986Z,7.886658
2019-04-05T23:25:56.407Z,7.866516
2019-04-05T23:26:11.780Z,7.866516
2019-04-05T23:26:28.815Z,7.886658
2019-04-05T23:26:42.272Z,7.856445
2019-04-05T23:26:56.694Z,7.856445
2019-04-05T23:27:12.043Z,7.856445
2019-04-05T23:27:26.414Z,7.856445
2019-04-05T23:27:40.805Z,7.846375
2019-04-05T23:27:55.159Z,7.826233
2019-04-05T23:28:09.532Z,7.826233
2019-04-05T23:28:23.921Z,7.826233
2019-04-05T23:28:39.302Z,7.846375
2019-04-05T23:28:53.706Z,7.846375
2019-04-05T23:29:08.088Z,7.856445
2019-04-05T23:29:22.489Z,7.846375
2019-04-05T23:29:37.852Z,7.866516
2019-04-05T23:29:52.239Z,7.846375
2019-04-05T23:30:06.629Z,7.856445
2019-04-05T23:30:20.988Z,7.866516
2019-04-05T23:30:35.344Z,7.866516
2019-04-05T23:30:49.714Z,7.866516
2019-04-05T23:31:04.078Z,7.886658
2019-04-05T23:31:18.459Z,7.886658
2019-04-05T23:31:32.881Z,7.886658
2019-04-05T23:31:48.250Z,7.886658
2019-04-05T23:32:02.644Z,7.896729
2019-04-05T23:32:17.072Z,7.896729
2019-04-05T23:32:31.493Z,7.896729
2019-04-05T23:32:45.969Z,7.91687
2019-04-05T23:33:00.389Z,7.896729
2019-04-05T23:33:15.748Z,7.91687
2019-04-05T23:33:31.182Z,7.91687
2019-04-05T23:33:45.606Z,7.91687
2019-04-05T23:34:00.009Z,7.91687
2019-04-05T23:34:14.391Z,7.926941
2019-04-05T23:34:29.767Z,7.926941
2019-04-05T23:34:44.152Z,7.91687
2019-04-05T23:34:58.556Z,7.926941
2019-04-05T23:35:12.947Z,7.926941
2019-04-05T23:35:27.316Z,7.91687
2019-04-05T23:35:41.701Z,7.926941
2019-04-05T23:35:57.270Z,7.926941
2019-04-05T23:36:12.625Z,7.926941
2019-04-05T23:36:28.040Z,7.926941
2019-04-05T23:36:42.426Z,7.926941
2019-04-05T23:36:56.870Z,7.926941
2019-04-05T23:37:11.253Z,7.926941
2019-04-05T23:37:25.681Z,7.947083
2019-04-05T23:37:40.041Z,7.947083
2019-04-05T23:37:54.452Z,7.947083
2019-04-05T23:38:08.890Z,7.947083
2019-04-05T23:38:23.268Z,7.926941
2019-04-05T23:38:37.643Z,7.947083
2019-04-05T23:38:52.071Z,7.947083
2019-04-05T23:39:06.525Z,7.947083
2019-04-05T23:39:20.893Z,7.947083
2019-04-05T23:39:35.280Z,7.947083
2019-04-05T23:39:49.643Z,7.947083
2019-04-05T23:40:04.046Z,7.947083
2019-04-05T23:40:18.443Z,7.967224
2019-04-05T23:40:34.522Z,7.967224
2019-04-05T23:40:48.883Z,7.947083
2019-04-05T23:41:04.468Z,7.947083
2019-04-05T23:41:18.683Z,7.967224
2019-04-05T23:41:33.054Z,7.947083
2019-04-05T23:41:47.427Z,7.967224
2019-04-05T23:42:01.819Z,7.947083
2019-04-05T23:42:16.218Z,7.967224
2019-04-05T23:42:30.621Z,7.967224
2019-04-05T23:42:45.040Z,7.977295
2019-04-05T23:42:59.492Z,7.967224
2019-04-05T23:43:13.889Z,7.967224
2019-04-05T23:43:28.308Z,7.967224
2019-04-05T23:43:42.706Z,7.977295
2019-04-05T23:43:57.114Z,7.967224
2019-04-05T23:44:12.465Z,7.977295
2019-04-05T23:44:26.833Z,7.997437
2019-04-05T23:44:42.211Z,7.977295
2019-04-05T23:44:56.567Z,7.977295
2019-04-05T23:45:10.947Z,7.977295
2019-04-05T23:45:25.325Z,7.967224
2019-04-05T23:45:39.704Z,7.967224
2019-04-05T23:45:54.084Z,7.967224
2019-04-05T23:46:08.475Z,7.947083
2019-04-05T23:46:22.893Z,7.947083
2019-04-05T23:46:37.289Z,7.947083
2019-04-05T23:46:52.816Z,7.967224
2019-04-05T23:47:07.019Z,7.967224
2019-04-05T23:47:21.407Z,7.947083
2019-04-05T23:47:35.819Z,7.926941
2019-04-05T23:47:50.194Z,7.91687
2019-04-05T23:48:04.627Z,7.926941
2019-04-05T23:48:19.032Z,7.926941
2019-04-05T23:48:34.466Z,7.926941
2019-04-05T23:48:48.878Z,7.926941
2019-04-05T23:49:03.281Z,7.947083
2019-04-05T23:49:17.700Z,7.926941
2019-04-05T23:49:32.071Z,7.947083
2019-04-05T23:49:46.444Z,7.947083
2019-04-05T23:50:00.887Z,7.926941
2019-04-05T23:50:15.242Z,7.967224
2019-04-05T23:50:29.634Z,7.947083
2019-04-05T23:50:44.007Z,7.947083
2019-04-05T23:50:58.437Z,7.967224
2019-04-05T23:51:12.826Z,7.967224
2019-04-05T23:51:27.225Z,7.947083
2019-04-05T23:51:41.609Z,7.947083
2019-04-05T23:51:55.993Z,7.967224
2019-04-05T23:52:10.427Z,7.947083
2019-04-05T23:52:24.891Z,7.967224
2019-04-05T23:52:39.306Z,7.967224
2019-04-05T23:52:53.695Z,7.947083
2019-04-05T23:53:08.068Z,7.967224
2019-04-05T23:53:23.427Z,7.967224
2019-04-05T23:53:37.812Z,7.947083
2019-04-05T23:53:52.241Z,7.947083
2019-04-05T23:54:06.607Z,7.926941
2019-04-05T23:54:21.007Z,7.91687
2019-04-05T23:54:35.368Z,7.896729
2019-04-05T23:54:49.759Z,7.886658
2019-04-05T23:55:04.156Z,7.866516
2019-04-05T23:55:19.519Z,7.856445
2019-04-05T23:55:39.850Z,7.856445
2019-04-05T23:55:54.222Z,7.856445
2019-04-05T23:56:08.625Z,7.856445
2019-04-05T23:56:23.008Z,7.866516
2019-04-05T23:56:37.379Z,7.866516
2019-04-05T23:56:51.775Z,7.866516
2019-04-05T23:57:06.171Z,7.866516
2019-04-05T23:57:21.547Z,7.856445
2019-04-05T23:57:35.934Z,7.856445
2019-04-05T23:57:50.322Z,7.866516
2019-04-05T23:58:05.682Z,7.866516
2019-04-05T23:58:21.085Z,7.866516
2019-04-05T23:58:35.467Z,7.866516
2019-04-05T23:58:49.843Z,7.886658
2019-04-05T23:59:04.226Z,7.886658
2019-04-05T23:59:20.595Z,7.866516
2019-04-05T23:59:34.961Z,7.896729
2019-04-05T23:59:49.352Z,7.886658
